sensor_id;sensor_type;location;lat;lon;timestamp;temperature;humidity
33717;DHT22;20046;50.746;7.072;2022-07-23T00:02:05;19.30;99.90
33717;DHT22;20046;50.746;7.072;2022-07-23T00:04:32;19.30;99.90
33717;DHT22;20046;50.746;7.072;2022-07-23T00:06:58;19.30;99.90
33717;DHT22;20046;50.746;7.072;2022-07-23T00:09:24;19.30;99.90
33717;DHT22;20046;50.746;7.072;2022-07-23T00:11:49;19.30;99.90
33717;DHT22;20046;50.746;7.072;2022-07-23T00:14:15;19.30;99.90
33717;DHT22;20046;50.746;7.072;2022-07-23T00:16:40;19.30;99.90
33717;DHT22;20046;50.746;7.072;2022-07-23T00:19:06;19.20;99.90
33717;DHT22;20046;50.746;7.072;2022-07-23T00:21:32;19.20;99.90
33717;DHT22;20046;50.746;7.072;2022-07-23T00:23:58;19.20;99.90
33717;DHT22;20046;50.746;7.072;2022-07-23T00:26:23;19.20;99.90
33717;DHT22;20046;50.746;7.072;2022-07-23T00:28:49;19.20;99.90
33717;DHT22;20046;50.746;7.072;2022-07-23T00:31:14;19.20;99.90
33717;DHT22;20046;50.746;7.072;2022-07-23T00:33:40;19.20;99.90
33717;DHT22;20046;50.746;7.072;2022-07-23T00:36:06;19.20;99.90
33717;DHT22;20046;50.746;7.072;2022-07-23T00:38:32;19.10;99.90
33717;DHT22;20046;50.746;7.072;2022-07-23T00:40:58;19.10;99.90
33717;DHT22;20046;50.746;7.072;2022-07-23T00:43:24;19.10;99.90
33717;DHT22;20046;50.746;7.072;2022-07-23T00:45:50;19.10;99.90
33717;DHT22;20046;50.746;7.072;2022-07-23T00:48:16;19.10;99.90
33717;DHT22;20046;50.746;7.072;2022-07-23T00:50:43;19.10;99.90
33717;DHT22;20046;50.746;7.072;2022-07-23T00:53:09;19.10;99.90
33717;DHT22;20046;50.746;7.072;2022-07-23T00:55:35;19.00;99.90
33717;DHT22;20046;50.746;7.072;2022-07-23T00:58:01;19.00;99.90
33717;DHT22;20046;50.746;7.072;2022-07-23T01:00:29;19.00;99.90
33717;DHT22;20046;50.746;7.072;2022-07-23T01:02:54;19.00;99.90
33717;DHT22;20046;50.746;7.072;2022-07-23T01:05:20;19.00;99.90
33717;DHT22;20046;50.746;7.072;2022-07-23T01:07:51;18.90;99.90
33717;DHT22;20046;50.746;7.072;2022-07-23T01:10:17;18.90;99.90
33717;DHT22;20046;50.746;7.072;2022-07-23T01:13:04;18.90;99.90
33717;DHT22;20046;50.746;7.072;2022-07-23T01:15:31;18.90;99.90
33717;DHT22;20046;50.746;7.072;2022-07-23T01:17:57;18.80;99.90
33717;DHT22;20046;50.746;7.072;2022-07-23T01:20:22;18.80;99.90
33717;DHT22;20046;50.746;7.072;2022-07-23T01:22:48;18.80;99.90
33717;DHT22;20046;50.746;7.072;2022-07-23T01:25:14;18.80;99.90
33717;DHT22;20046;50.746;7.072;2022-07-23T01:27:40;18.80;99.90
33717;DHT22;20046;50.746;7.072;2022-07-23T01:30:06;18.70;99.90
33717;DHT22;20046;50.746;7.072;2022-07-23T01:32:32;18.70;99.90
33717;DHT22;20046;50.746;7.072;2022-07-23T01:34:58;18.70;99.90
33717;DHT22;20046;50.746;7.072;2022-07-23T01:37:24;18.60;99.90
33717;DHT22;20046;50.746;7.072;2022-07-23T01:39:49;18.60;99.90
33717;DHT22;20046;50.746;7.072;2022-07-23T01:42:15;18.60;99.90
33717;DHT22;20046;50.746;7.072;2022-07-23T01:44:40;18.50;99.90
33717;DHT22;20046;50.746;7.072;2022-07-23T01:47:06;18.60;99.90
33717;DHT22;20046;50.746;7.072;2022-07-23T01:49:32;18.50;99.90
33717;DHT22;20046;50.746;7.072;2022-07-23T01:51:57;18.50;99.90
33717;DHT22;20046;50.746;7.072;2022-07-23T01:54:31;18.50;99.90
33717;DHT22;20046;50.746;7.072;2022-07-23T01:56:57;18.50;99.90
33717;DHT22;20046;50.746;7.072;2022-07-23T01:59:23;18.50;99.90
33717;DHT22;20046;50.746;7.072;2022-07-23T02:01:50;18.50;99.90
33717;DHT22;20046;50.746;7.072;2022-07-23T02:04:19;18.50;99.90
33717;DHT22;20046;50.746;7.072;2022-07-23T02:06:45;18.40;99.90
33717;DHT22;20046;50.746;7.072;2022-07-23T02:09:11;18.40;99.90
33717;DHT22;20046;50.746;7.072;2022-07-23T02:11:37;18.40;99.90
33717;DHT22;20046;50.746;7.072;2022-07-23T02:14:02;18.40;99.90
33717;DHT22;20046;50.746;7.072;2022-07-23T02:16:28;18.40;99.90
33717;DHT22;20046;50.746;7.072;2022-07-23T02:18:54;18.40;99.90
33717;DHT22;20046;50.746;7.072;2022-07-23T02:21:20;18.40;99.90
33717;DHT22;20046;50.746;7.072;2022-07-23T02:23:46;18.40;99.90
33717;DHT22;20046;50.746;7.072;2022-07-23T02:26:12;18.30;99.90
33717;DHT22;20046;50.746;7.072;2022-07-23T02:28:37;18.30;99.90
33717;DHT22;20046;50.746;7.072;2022-07-23T02:31:03;18.30;99.90
33717;DHT22;20046;50.746;7.072;2022-07-23T02:33:29;18.20;99.90
33717;DHT22;20046;50.746;7.072;2022-07-23T02:35:55;18.20;99.90
33717;DHT22;20046;50.746;7.072;2022-07-23T02:38:20;18.20;99.90
33717;DHT22;20046;50.746;7.072;2022-07-23T02:40:46;18.20;99.90
33717;DHT22;20046;50.746;7.072;2022-07-23T02:43:12;18.10;99.90
33717;DHT22;20046;50.746;7.072;2022-07-23T02:45:37;18.10;99.90
33717;DHT22;20046;50.746;7.072;2022-07-23T02:48:03;18.10;99.90
33717;DHT22;20046;50.746;7.072;2022-07-23T02:50:29;18.10;99.90
33717;DHT22;20046;50.746;7.072;2022-07-23T02:52:55;18.10;99.90
33717;DHT22;20046;50.746;7.072;2022-07-23T02:55:20;18.00;99.90
33717;DHT22;20046;50.746;7.072;2022-07-23T02:57:46;17.90;99.90
33717;DHT22;20046;50.746;7.072;2022-07-23T03:00:12;18.00;99.90
33717;DHT22;20046;50.746;7.072;2022-07-23T03:02:38;17.90;99.90
33717;DHT22;20046;50.746;7.072;2022-07-23T03:05:04;17.90;99.90
33717;DHT22;20046;50.746;7.072;2022-07-23T03:07:29;17.80;99.90
33717;DHT22;20046;50.746;7.072;2022-07-23T03:09:55;17.70;99.90
33717;DHT22;20046;50.746;7.072;2022-07-23T03:12:21;17.70;99.90
33717;DHT22;20046;50.746;7.072;2022-07-23T03:14:47;17.60;99.90
33717;DHT22;20046;50.746;7.072;2022-07-23T03:17:12;17.60;99.90
33717;DHT22;20046;50.746;7.072;2022-07-23T03:19:38;17.50;99.90
33717;DHT22;20046;50.746;7.072;2022-07-23T03:22:04;17.40;99.90
33717;DHT22;20046;50.746;7.072;2022-07-23T03:24:30;17.40;99.90
33717;DHT22;20046;50.746;7.072;2022-07-23T03:27:15;17.20;99.90
33717;DHT22;20046;50.746;7.072;2022-07-23T03:29:40;17.20;99.90
33717;DHT22;20046;50.746;7.072;2022-07-23T03:32:06;17.20;99.90
33717;DHT22;20046;50.746;7.072;2022-07-23T03:34:32;17.20;99.90
33717;DHT22;20046;50.746;7.072;2022-07-23T03:36:58;17.20;99.90
33717;DHT22;20046;50.746;7.072;2022-07-23T03:39:23;17.10;99.90
33717;DHT22;20046;50.746;7.072;2022-07-23T03:41:49;17.10;99.90
33717;DHT22;20046;50.746;7.072;2022-07-23T03:44:15;17.10;99.90
33717;DHT22;20046;50.746;7.072;2022-07-23T03:46:40;17.10;99.90
33717;DHT22;20046;50.746;7.072;2022-07-23T03:49:06;17.00;99.90
33717;DHT22;20046;50.746;7.072;2022-07-23T03:51:31;17.00;99.90
33717;DHT22;20046;50.746;7.072;2022-07-23T03:53:57;16.90;99.90
33717;DHT22;20046;50.746;7.072;2022-07-23T03:56:23;16.90;99.90
33717;DHT22;20046;50.746;7.072;2022-07-23T03:58:49;16.80;99.90
33717;DHT22;20046;50.746;7.072;2022-07-23T04:01:15;16.80;99.90
33717;DHT22;20046;50.746;7.072;2022-07-23T04:03:40;16.70;99.90
33717;DHT22;20046;50.746;7.072;2022-07-23T04:06:06;16.70;99.90
33717;DHT22;20046;50.746;7.072;2022-07-23T04:08:32;16.60;99.90
33717;DHT22;20046;50.746;7.072;2022-07-23T04:10:57;16.60;99.90
33717;DHT22;20046;50.746;7.072;2022-07-23T04:13:23;16.60;99.90
33717;DHT22;20046;50.746;7.072;2022-07-23T04:15:49;16.60;99.90
33717;DHT22;20046;50.746;7.072;2022-07-23T04:18:16;16.60;99.90
33717;DHT22;20046;50.746;7.072;2022-07-23T04:20:47;16.60;99.90
33717;DHT22;20046;50.746;7.072;2022-07-23T04:23:13;16.60;99.90
33717;DHT22;20046;50.746;7.072;2022-07-23T04:25:38;16.60;99.90
33717;DHT22;20046;50.746;7.072;2022-07-23T04:28:04;16.60;99.90
33717;DHT22;20046;50.746;7.072;2022-07-23T04:30:30;16.60;99.90
33717;DHT22;20046;50.746;7.072;2022-07-23T04:32:55;16.70;99.90
33717;DHT22;20046;50.746;7.072;2022-07-23T04:35:21;16.70;99.90
33717;DHT22;20046;50.746;7.072;2022-07-23T04:37:47;16.70;99.90
33717;DHT22;20046;50.746;7.072;2022-07-23T04:40:13;16.70;99.90
33717;DHT22;20046;50.746;7.072;2022-07-23T04:42:39;16.70;99.90
33717;DHT22;20046;50.746;7.072;2022-07-23T04:45:05;16.70;99.90
33717;DHT22;20046;50.746;7.072;2022-07-23T04:47:31;16.70;99.90
33717;DHT22;20046;50.746;7.072;2022-07-23T04:49:57;16.80;99.90
33717;DHT22;20046;50.746;7.072;2022-07-23T04:52:23;16.80;99.90
33717;DHT22;20046;50.746;7.072;2022-07-23T04:54:49;16.90;99.90
33717;DHT22;20046;50.746;7.072;2022-07-23T04:57:15;16.90;99.90
33717;DHT22;20046;50.746;7.072;2022-07-23T04:59:41;17.00;99.90
33717;DHT22;20046;50.746;7.072;2022-07-23T05:02:07;17.10;99.90
33717;DHT22;20046;50.746;7.072;2022-07-23T05:04:32;17.00;99.90
33717;DHT22;20046;50.746;7.072;2022-07-23T05:06:59;17.00;99.90
33717;DHT22;20046;50.746;7.072;2022-07-23T05:09:24;17.00;99.90
33717;DHT22;20046;50.746;7.072;2022-07-23T05:11:50;17.00;99.90
33717;DHT22;20046;50.746;7.072;2022-07-23T05:14:15;17.00;99.90
33717;DHT22;20046;50.746;7.072;2022-07-23T05:16:41;17.10;99.90
33717;DHT22;20046;50.746;7.072;2022-07-23T05:19:07;17.20;99.90
33717;DHT22;20046;50.746;7.072;2022-07-23T05:21:33;17.30;99.90
33717;DHT22;20046;50.746;7.072;2022-07-23T05:23:58;17.50;99.90
33717;DHT22;20046;50.746;7.072;2022-07-23T05:26:25;17.60;99.90
33717;DHT22;20046;50.746;7.072;2022-07-23T05:28:50;17.70;99.90
33717;DHT22;20046;50.746;7.072;2022-07-23T05:31:16;17.80;99.90
33717;DHT22;20046;50.746;7.072;2022-07-23T05:33:42;17.90;99.90
33717;DHT22;20046;50.746;7.072;2022-07-23T05:36:09;18.10;99.90
33717;DHT22;20046;50.746;7.072;2022-07-23T05:38:35;18.20;99.90
33717;DHT22;20046;50.746;7.072;2022-07-23T05:41:01;18.20;99.90
33717;DHT22;20046;50.746;7.072;2022-07-23T05:43:27;18.20;99.90
33717;DHT22;20046;50.746;7.072;2022-07-23T05:45:53;18.30;99.90
33717;DHT22;20046;50.746;7.072;2022-07-23T05:48:19;18.30;99.90
33717;DHT22;20046;50.746;7.072;2022-07-23T05:50:44;18.30;99.90
33717;DHT22;20046;50.746;7.072;2022-07-23T05:53:10;18.30;99.90
33717;DHT22;20046;50.746;7.072;2022-07-23T05:55:35;18.20;99.90
33717;DHT22;20046;50.746;7.072;2022-07-23T05:58:01;18.20;99.90
33717;DHT22;20046;50.746;7.072;2022-07-23T06:00:30;18.30;99.90
33717;DHT22;20046;50.746;7.072;2022-07-23T06:02:55;18.30;99.90
33717;DHT22;20046;50.746;7.072;2022-07-23T06:05:22;18.30;99.90
33717;DHT22;20046;50.746;7.072;2022-07-23T06:07:47;18.30;99.90
33717;DHT22;20046;50.746;7.072;2022-07-23T06:10:13;18.30;99.90
33717;DHT22;20046;50.746;7.072;2022-07-23T06:12:39;18.20;99.90
33717;DHT22;20046;50.746;7.072;2022-07-23T06:15:05;18.10;99.90
33717;DHT22;20046;50.746;7.072;2022-07-23T06:17:31;18.10;99.90
33717;DHT22;20046;50.746;7.072;2022-07-23T06:19:56;18.10;99.90
33717;DHT22;20046;50.746;7.072;2022-07-23T06:22:22;18.10;99.90
33717;DHT22;20046;50.746;7.072;2022-07-23T06:24:49;18.10;99.90
33717;DHT22;20046;50.746;7.072;2022-07-23T06:27:14;18.20;99.90
33717;DHT22;20046;50.746;7.072;2022-07-23T06:29:40;18.30;99.90
33717;DHT22;20046;50.746;7.072;2022-07-23T06:32:06;18.40;99.90
33717;DHT22;20046;50.746;7.072;2022-07-23T06:34:32;18.60;99.90
33717;DHT22;20046;50.746;7.072;2022-07-23T06:36:58;18.70;99.90
33717;DHT22;20046;50.746;7.072;2022-07-23T06:39:24;18.70;99.90
33717;DHT22;20046;50.746;7.072;2022-07-23T06:41:50;18.70;99.90
33717;DHT22;20046;50.746;7.072;2022-07-23T06:44:16;18.70;99.90
33717;DHT22;20046;50.746;7.072;2022-07-23T06:46:42;18.70;99.90
33717;DHT22;20046;50.746;7.072;2022-07-23T06:49:07;18.70;99.90
33717;DHT22;20046;50.746;7.072;2022-07-23T06:51:33;18.90;99.90
33717;DHT22;20046;50.746;7.072;2022-07-23T06:53:59;18.90;99.90
33717;DHT22;20046;50.746;7.072;2022-07-23T06:56:24;19.10;99.90
33717;DHT22;20046;50.746;7.072;2022-07-23T06:58:50;19.10;99.90
33717;DHT22;20046;50.746;7.072;2022-07-23T07:01:16;19.20;99.90
33717;DHT22;20046;50.746;7.072;2022-07-23T07:03:42;19.30;99.90
33717;DHT22;20046;50.746;7.072;2022-07-23T07:06:07;19.30;99.90
33717;DHT22;20046;50.746;7.072;2022-07-23T07:08:33;19.40;99.90
33717;DHT22;20046;50.746;7.072;2022-07-23T07:10:58;19.40;99.90
33717;DHT22;20046;50.746;7.072;2022-07-23T07:13:24;19.50;99.90
33717;DHT22;20046;50.746;7.072;2022-07-23T07:15:50;19.50;99.90
33717;DHT22;20046;50.746;7.072;2022-07-23T07:18:15;19.60;99.90
33717;DHT22;20046;50.746;7.072;2022-07-23T07:20:41;19.80;99.90
33717;DHT22;20046;50.746;7.072;2022-07-23T07:23:06;19.80;99.90
33717;DHT22;20046;50.746;7.072;2022-07-23T07:25:32;19.90;99.90
33717;DHT22;20046;50.746;7.072;2022-07-23T07:27:58;20.00;99.90
33717;DHT22;20046;50.746;7.072;2022-07-23T07:30:23;20.00;99.90
33717;DHT22;20046;50.746;7.072;2022-07-23T07:32:49;20.10;99.90
33717;DHT22;20046;50.746;7.072;2022-07-23T07:35:14;20.10;99.90
33717;DHT22;20046;50.746;7.072;2022-07-23T07:37:40;20.30;99.90
33717;DHT22;20046;50.746;7.072;2022-07-23T07:40:06;20.40;99.90
33717;DHT22;20046;50.746;7.072;2022-07-23T07:42:32;20.60;99.90
33717;DHT22;20046;50.746;7.072;2022-07-23T07:44:58;20.60;99.90
33717;DHT22;20046;50.746;7.072;2022-07-23T07:47:24;20.70;99.90
33717;DHT22;20046;50.746;7.072;2022-07-23T07:49:49;20.90;99.90
33717;DHT22;20046;50.746;7.072;2022-07-23T07:52:15;20.90;99.90
33717;DHT22;20046;50.746;7.072;2022-07-23T07:54:41;21.20;99.90
33717;DHT22;20046;50.746;7.072;2022-07-23T07:57:06;21.60;99.90
33717;DHT22;20046;50.746;7.072;2022-07-23T07:59:32;22.10;99.90
33717;DHT22;20046;50.746;7.072;2022-07-23T08:01:58;22.60;99.90
33717;DHT22;20046;50.746;7.072;2022-07-23T08:04:23;22.90;99.90
33717;DHT22;20046;50.746;7.072;2022-07-23T08:06:49;23.00;99.90
33717;DHT22;20046;50.746;7.072;2022-07-23T08:09:15;23.20;99.90
33717;DHT22;20046;50.746;7.072;2022-07-23T08:11:40;23.10;99.90
33717;DHT22;20046;50.746;7.072;2022-07-23T08:14:06;23.20;99.90
33717;DHT22;20046;50.746;7.072;2022-07-23T08:16:31;23.30;99.90
33717;DHT22;20046;50.746;7.072;2022-07-23T08:18:57;23.50;99.90
33717;DHT22;20046;50.746;7.072;2022-07-23T08:21:23;23.60;99.90
33717;DHT22;20046;50.746;7.072;2022-07-23T08:23:48;24.00;99.90
33717;DHT22;20046;50.746;7.072;2022-07-23T08:26:14;24.40;99.90
33717;DHT22;20046;50.746;7.072;2022-07-23T08:28:39;25.00;99.90
33717;DHT22;20046;50.746;7.072;2022-07-23T08:31:05;25.40;99.90
33717;DHT22;20046;50.746;7.072;2022-07-23T08:33:31;25.10;99.90
33717;DHT22;20046;50.746;7.072;2022-07-23T08:35:57;25.10;99.90
33717;DHT22;20046;50.746;7.072;2022-07-23T08:38:23;25.60;99.90
33717;DHT22;20046;50.746;7.072;2022-07-23T08:40:54;26.20;99.90
33717;DHT22;20046;50.746;7.072;2022-07-23T08:43:32;25.90;99.90
33717;DHT22;20046;50.746;7.072;2022-07-23T08:45:59;25.70;99.90
33717;DHT22;20046;50.746;7.072;2022-07-23T08:48:27;26.30;99.90
33717;DHT22;20046;50.746;7.072;2022-07-23T08:50:56;27.10;99.90
33717;DHT22;20046;50.746;7.072;2022-07-23T08:53:23;27.80;99.30
33717;DHT22;20046;50.746;7.072;2022-07-23T08:55:51;28.30;98.30
33717;DHT22;20046;50.746;7.072;2022-07-23T08:58:18;28.50;97.90
33717;DHT22;20046;50.746;7.072;2022-07-23T09:00:45;29.00;96.20
33717;DHT22;20046;50.746;7.072;2022-07-23T09:03:22;29.30;95.50
33717;DHT22;20046;50.746;7.072;2022-07-23T09:05:53;29.60;94.40
33717;DHT22;20046;50.746;7.072;2022-07-23T09:08:23;29.90;93.60
33717;DHT22;20046;50.746;7.072;2022-07-23T09:10:55;29.80;93.50
33717;DHT22;20046;50.746;7.072;2022-07-23T09:13:42;29.90;92.90
33717;DHT22;20046;50.746;7.072;2022-07-23T09:16:17;30.10;92.70
33717;DHT22;20046;50.746;7.072;2022-07-23T09:18:49;30.40;91.60
33717;DHT22;20046;50.746;7.072;2022-07-23T09:21:24;30.40;91.00
33717;DHT22;20046;50.746;7.072;2022-07-23T09:23:53;30.60;90.60
33717;DHT22;20046;50.746;7.072;2022-07-23T09:26:20;30.60;90.40
33717;DHT22;20046;50.746;7.072;2022-07-23T09:28:55;30.90;90.00
33717;DHT22;20046;50.746;7.072;2022-07-23T09:31:22;31.10;87.40
33717;DHT22;20046;50.746;7.072;2022-07-23T09:33:47;30.90;87.00
33717;DHT22;20046;50.746;7.072;2022-07-23T09:36:13;31.10;87.20
33717;DHT22;20046;50.746;7.072;2022-07-23T09:38:49;31.10;86.80
33717;DHT22;20046;50.746;7.072;2022-07-23T09:41:16;30.40;86.10
33717;DHT22;20046;50.746;7.072;2022-07-23T09:43:41;29.80;87.90
33717;DHT22;20046;50.746;7.072;2022-07-23T09:46:24;29.60;89.50
33717;DHT22;20046;50.746;7.072;2022-07-23T09:48:51;29.10;89.30
33717;DHT22;20046;50.746;7.072;2022-07-23T09:51:18;29.00;89.00
33717;DHT22;20046;50.746;7.072;2022-07-23T09:53:48;29.50;88.40
33717;DHT22;20046;50.746;7.072;2022-07-23T09:56:14;29.80;87.30
33717;DHT22;20046;50.746;7.072;2022-07-23T09:58:41;30.00;86.70
33717;DHT22;20046;50.746;7.072;2022-07-23T10:01:17;30.40;86.80
33717;DHT22;20046;50.746;7.072;2022-07-23T10:03:45;30.50;83.50
33717;DHT22;20046;50.746;7.072;2022-07-23T10:06:13;30.30;83.10
33717;DHT22;20046;50.746;7.072;2022-07-23T10:08:40;30.20;83.60
33717;DHT22;20046;50.746;7.072;2022-07-23T10:11:07;30.20;83.00
33717;DHT22;20046;50.746;7.072;2022-07-23T10:13:33;29.70;84.10
33717;DHT22;20046;50.746;7.072;2022-07-23T10:15:59;29.60;85.10
33717;DHT22;20046;50.746;7.072;2022-07-23T10:18:25;29.80;84.70
33717;DHT22;20046;50.746;7.072;2022-07-23T10:20:51;30.20;83.60
33717;DHT22;20046;50.746;7.072;2022-07-23T10:23:22;30.90;83.60
33717;DHT22;20046;50.746;7.072;2022-07-23T10:36:50;32.80;74.00
33717;DHT22;20046;50.746;7.072;2022-07-23T10:39:24;33.00;74.00
33717;DHT22;20046;50.746;7.072;2022-07-23T10:41:51;33.20;73.80
33717;DHT22;20046;50.746;7.072;2022-07-23T10:44:20;33.20;72.60
33717;DHT22;20046;50.746;7.072;2022-07-23T10:47:25;33.20;73.10
33717;DHT22;20046;50.746;7.072;2022-07-23T10:58:01;34.30;68.60
33717;DHT22;20046;50.746;7.072;2022-07-23T11:00:29;34.10;67.80
33717;DHT22;20046;50.746;7.072;2022-07-23T11:02:57;34.50;66.90
33717;DHT22;20046;50.746;7.072;2022-07-23T11:05:46;35.00;66.50
33717;DHT22;20046;50.746;7.072;2022-07-23T11:08:14;34.90;66.00
33717;DHT22;20046;50.746;7.072;2022-07-23T11:24:07;34.90;65.80
33717;DHT22;20046;50.746;7.072;2022-07-23T11:26:58;35.10;64.40
33717;DHT22;20046;50.746;7.072;2022-07-23T11:32:23;34.80;62.80
33717;DHT22;20046;50.746;7.072;2022-07-23T11:34:51;34.90;63.10
33717;DHT22;20046;50.746;7.072;2022-07-23T11:37:39;35.00;62.50
33717;DHT22;20046;50.746;7.072;2022-07-23T11:40:16;34.90;62.20
33717;DHT22;20046;50.746;7.072;2022-07-23T11:42:55;34.20;60.60
33717;DHT22;20046;50.746;7.072;2022-07-23T11:45:22;34.50;60.30
33717;DHT22;20046;50.746;7.072;2022-07-23T11:47:48;34.90;60.30
33717;DHT22;20046;50.746;7.072;2022-07-23T11:50:13;35.30;59.70
33717;DHT22;20046;50.746;7.072;2022-07-23T11:52:39;35.50;59.50
33717;DHT22;20046;50.746;7.072;2022-07-23T11:55:08;35.80;59.10
33717;DHT22;20046;50.746;7.072;2022-07-23T11:57:37;36.10;59.40
33717;DHT22;20046;50.746;7.072;2022-07-23T12:02:28;36.00;58.30
33717;DHT22;20046;50.746;7.072;2022-07-23T12:04:54;35.70;57.90
33717;DHT22;20046;50.746;7.072;2022-07-23T12:07:37;35.80;58.50
33717;DHT22;20046;50.746;7.072;2022-07-23T12:10:25;36.10;56.90
33717;DHT22;20046;50.746;7.072;2022-07-23T12:12:53;36.50;56.40
33717;DHT22;20046;50.746;7.072;2022-07-23T12:15:22;36.90;55.30
33717;DHT22;20046;50.746;7.072;2022-07-23T12:17:49;36.90;55.00
33717;DHT22;20046;50.746;7.072;2022-07-23T12:20:18;37.20;54.40
33717;DHT22;20046;50.746;7.072;2022-07-23T12:22:47;37.40;54.60
33717;DHT22;20046;50.746;7.072;2022-07-23T12:25:18;38.10;54.80
33717;DHT22;20046;50.746;7.072;2022-07-23T12:27:45;38.30;53.70
33717;DHT22;20046;50.746;7.072;2022-07-23T12:30:26;38.60;54.00
33717;DHT22;20046;50.746;7.072;2022-07-23T12:32:56;38.90;52.80
33717;DHT22;20046;50.746;7.072;2022-07-23T12:35:29;39.20;50.90
33717;DHT22;20046;50.746;7.072;2022-07-23T12:38:06;39.20;50.80
33717;DHT22;20046;50.746;7.072;2022-07-23T12:40:35;39.70;50.20
33717;DHT22;20046;50.746;7.072;2022-07-23T12:43:25;40.00;50.10
33717;DHT22;20046;50.746;7.072;2022-07-23T12:46:15;40.40;49.20
33717;DHT22;20046;50.746;7.072;2022-07-23T12:51:27;40.50;46.80
33717;DHT22;20046;50.746;7.072;2022-07-23T12:54:06;41.10;45.80
33717;DHT22;20046;50.746;7.072;2022-07-23T12:56:34;41.60;45.30
33717;DHT22;20046;50.746;7.072;2022-07-23T12:59:11;41.80;43.50
33717;DHT22;20046;50.746;7.072;2022-07-23T13:01:54;42.10;42.30
33717;DHT22;20046;50.746;7.072;2022-07-23T13:04:21;42.10;41.90
33717;DHT22;20046;50.746;7.072;2022-07-23T13:06:49;42.30;42.30
33717;DHT22;20046;50.746;7.072;2022-07-23T13:09:18;42.20;42.30
33717;DHT22;20046;50.746;7.072;2022-07-23T13:11:45;41.80;42.50
33717;DHT22;20046;50.746;7.072;2022-07-23T13:14:12;42.10;42.90
33717;DHT22;20046;50.746;7.072;2022-07-23T13:16:38;42.20;43.00
33717;DHT22;20046;50.746;7.072;2022-07-23T13:19:04;42.30;41.90
33717;DHT22;20046;50.746;7.072;2022-07-23T13:21:30;42.30;42.00
33717;DHT22;20046;50.746;7.072;2022-07-23T13:23:56;42.10;41.80
33717;DHT22;20046;50.746;7.072;2022-07-23T13:26:22;41.80;41.80
33717;DHT22;20046;50.746;7.072;2022-07-23T13:28:47;41.50;42.20
33717;DHT22;20046;50.746;7.072;2022-07-23T13:31:14;40.90;42.20
33717;DHT22;20046;50.746;7.072;2022-07-23T13:33:39;39.30;44.30
33717;DHT22;20046;50.746;7.072;2022-07-23T13:36:05;36.70;46.70
33717;DHT22;20046;50.746;7.072;2022-07-23T13:38:31;35.00;48.90
33717;DHT22;20046;50.746;7.072;2022-07-23T13:40:57;33.70;50.80
33717;DHT22;20046;50.746;7.072;2022-07-23T13:43:24;33.00;53.10
33717;DHT22;20046;50.746;7.072;2022-07-23T13:45:51;32.50;53.20
33717;DHT22;20046;50.746;7.072;2022-07-23T13:48:18;32.00;54.10
33717;DHT22;20046;50.746;7.072;2022-07-23T13:50:45;31.70;54.90
33717;DHT22;20046;50.746;7.072;2022-07-23T13:53:14;31.20;54.90
33717;DHT22;20046;50.746;7.072;2022-07-23T13:55:41;31.10;55.80
33717;DHT22;20046;50.746;7.072;2022-07-23T13:58:07;31.00;56.60
33717;DHT22;20046;50.746;7.072;2022-07-23T14:00:34;30.80;55.80
33717;DHT22;20046;50.746;7.072;2022-07-23T14:03:00;30.80;56.60
33717;DHT22;20046;50.746;7.072;2022-07-23T14:05:26;30.80;57.80
33717;DHT22;20046;50.746;7.072;2022-07-23T14:07:52;30.80;57.70
33717;DHT22;20046;50.746;7.072;2022-07-23T14:10:19;30.80;59.30
33717;DHT22;20046;50.746;7.072;2022-07-23T14:12:47;30.80;57.50
33717;DHT22;20046;50.746;7.072;2022-07-23T14:15:13;30.90;57.80
33717;DHT22;20046;50.746;7.072;2022-07-23T14:17:42;30.80;57.50
33717;DHT22;20046;50.746;7.072;2022-07-23T14:20:09;30.70;57.90
33717;DHT22;20046;50.746;7.072;2022-07-23T14:22:35;30.60;57.20
33717;DHT22;20046;50.746;7.072;2022-07-23T14:25:03;30.60;58.40
33717;DHT22;20046;50.746;7.072;2022-07-23T14:27:28;30.70;57.70
33717;DHT22;20046;50.746;7.072;2022-07-23T14:29:55;30.60;57.50
33717;DHT22;20046;50.746;7.072;2022-07-23T14:32:20;30.60;57.70
33717;DHT22;20046;50.746;7.072;2022-07-23T14:34:47;30.50;58.20
33717;DHT22;20046;50.746;7.072;2022-07-23T14:37:12;30.50;58.30
33717;DHT22;20046;50.746;7.072;2022-07-23T14:39:39;30.40;58.90
33717;DHT22;20046;50.746;7.072;2022-07-23T14:42:06;30.30;58.50
33717;DHT22;20046;50.746;7.072;2022-07-23T14:44:32;30.20;58.30
33717;DHT22;20046;50.746;7.072;2022-07-23T14:46:58;30.10;59.00
33717;DHT22;20046;50.746;7.072;2022-07-23T14:49:25;29.90;58.50
33717;DHT22;20046;50.746;7.072;2022-07-23T14:51:51;29.60;58.70
33717;DHT22;20046;50.746;7.072;2022-07-23T14:54:17;29.50;58.80
33717;DHT22;20046;50.746;7.072;2022-07-23T14:56:43;29.40;59.50
33717;DHT22;20046;50.746;7.072;2022-07-23T14:59:09;29.30;59.90
33717;DHT22;20046;50.746;7.072;2022-07-23T15:01:35;29.40;60.10
33717;DHT22;20046;50.746;7.072;2022-07-23T15:04:00;29.50;60.40
33717;DHT22;20046;50.746;7.072;2022-07-23T15:06:26;29.60;59.70
33717;DHT22;20046;50.746;7.072;2022-07-23T15:08:52;29.70;60.50
33717;DHT22;20046;50.746;7.072;2022-07-23T15:11:17;29.70;58.90
33717;DHT22;20046;50.746;7.072;2022-07-23T15:13:43;29.70;59.10
33717;DHT22;20046;50.746;7.072;2022-07-23T15:16:09;29.70;59.50
33717;DHT22;20046;50.746;7.072;2022-07-23T15:18:35;29.60;59.20
33717;DHT22;20046;50.746;7.072;2022-07-23T15:21:02;29.50;59.80
33717;DHT22;20046;50.746;7.072;2022-07-23T15:23:28;29.50;60.30
33717;DHT22;20046;50.746;7.072;2022-07-23T15:25:57;29.40;60.10
33717;DHT22;20046;50.746;7.072;2022-07-23T15:28:23;29.00;59.60
33717;DHT22;20046;50.746;7.072;2022-07-23T15:30:50;29.00;61.10
33717;DHT22;20046;50.746;7.072;2022-07-23T15:33:16;29.00;60.80
33717;DHT22;20046;50.746;7.072;2022-07-23T15:35:42;28.90;59.60
33717;DHT22;20046;50.746;7.072;2022-07-23T15:38:08;28.90;61.00
33717;DHT22;20046;50.746;7.072;2022-07-23T15:40:33;28.80;60.70
33717;DHT22;20046;50.746;7.072;2022-07-23T15:42:59;29.00;62.00
33717;DHT22;20046;50.746;7.072;2022-07-23T15:45:25;29.00;61.90
33717;DHT22;20046;50.746;7.072;2022-07-23T15:47:51;29.10;61.30
33717;DHT22;20046;50.746;7.072;2022-07-23T15:50:17;28.90;60.40
33717;DHT22;20046;50.746;7.072;2022-07-23T15:52:42;28.90;61.20
33717;DHT22;20046;50.746;7.072;2022-07-23T15:55:08;28.80;61.90
33717;DHT22;20046;50.746;7.072;2022-07-23T15:57:34;28.70;60.90
33717;DHT22;20046;50.746;7.072;2022-07-23T16:00:00;28.50;61.40
33717;DHT22;20046;50.746;7.072;2022-07-23T16:02:25;28.50;61.60
33717;DHT22;20046;50.746;7.072;2022-07-23T16:04:51;28.50;63.00
33717;DHT22;20046;50.746;7.072;2022-07-23T16:07:19;28.40;62.10
33717;DHT22;20046;50.746;7.072;2022-07-23T16:09:45;28.30;61.60
33717;DHT22;20046;50.746;7.072;2022-07-23T16:12:11;28.30;61.50